KEGI

Duke Field Airport

Crestview, Florida, USA
METAR KEGI 171555Z 17006KT 10SM FEW009 SCT028 BKN140 BKN180 BKN250 27/24 A3018 RMK AO2A SLP219 T02710237 $
Observed Flight Rules
Aug-17 @ 15:55 UTC (58 minutes ago) Visual Flight Rules
Wind Visibility Clouds
170° at 6 knots 10 miles
  • Few at 900' AGL
  • Scattered at 2,800' AGL
  • Broken at 14,000' AGL
  • Broken at 18,000' AGL
Temperatures Readings
Current 27°C / 81°F
Dewpoint 24°C / 75°F
Humidity 84%
Altimeter 30.18" Hg
Pressure 1021.9 hPa
Elevation 59
METAR KEGI 171555Z 17006KT 10SM FEW009 SCT028 BKN140 BKN180 BKN250 27/24 A3018 RMK AO2A SLP219 T02710237 $
Observed Flight Rules
Aug-17 @ 15:55 UTC
(58 minutes ago)
VFR
Wind Visibility
170° at 6 knots 10 miles
Clouds
  • Few at 900' AGL
  • Scattered at 2,800' AGL
  • Broken at 14,000' AGL
  • Broken at 18,000' AGL
Temperature Dewpoint
27°C / 81°F 24°C / 75°F
Humidity Altimeter Pressure
84% 30.18" Hg 1021.9 hPa